sensor_id;sensor_type;location;lat;lon;timestamp;pressure;altitude;pressure_sealevel;temperature;humidity
57900;BME280;60605;53.716;19.940;2023-04-01T00:01:14;98407.21;;;8.15;100.00
57900;BME280;60605;53.716;19.940;2023-04-01T00:06:18;98405.27;;;8.12;100.00
57900;BME280;60605;53.716;19.940;2023-04-01T00:11:20;98403.45;;;8.08;100.00
57900;BME280;60605;53.716;19.940;2023-04-01T00:16:22;98400.64;;;8.03;100.00
57900;BME280;60605;53.716;19.940;2023-04-01T00:21:24;98404.02;;;7.99;100.00
57900;BME280;60605;53.716;19.940;2023-04-01T00:26:26;98402.86;;;7.95;100.00
57900;BME280;60605;53.716;19.940;2023-04-01T00:31:29;98403.80;;;7.93;100.00
57900;BME280;60605;53.716;19.940;2023-04-01T00:36:32;98400.20;;;7.90;100.00
57900;BME280;60605;53.716;19.940;2023-04-01T00:41:34;98401.00;;;7.90;100.00
57900;BME280;60605;53.716;19.940;2023-04-01T00:46:37;98401.70;;;7.90;100.00
57900;BME280;60605;53.716;19.940;2023-04-01T00:51:41;98399.70;;;7.90;100.00
57900;BME280;60605;53.716;19.940;2023-04-01T00:56:52;98396.06;;;7.91;100.00
57900;BME280;60605;53.716;19.940;2023-04-01T01:01:57;98395.52;;;7.92;100.00
57900;BME280;60605;53.716;19.940;2023-04-01T01:12:39;98394.73;;;7.95;100.00
57900;BME280;60605;53.716;19.940;2023-04-01T01:17:44;98394.34;;;7.96;100.00
57900;BME280;60605;53.716;19.940;2023-04-01T01:28:21;98390.25;;;7.99;100.00
57900;BME280;60605;53.716;19.940;2023-04-01T01:33:39;98390.08;;;8.02;100.00
57900;BME280;60605;53.716;19.940;2023-04-01T01:38:48;98389.75;;;8.05;100.00
57900;BME280;60605;53.716;19.940;2023-04-01T01:43:54;98392.40;;;8.06;100.00
57900;BME280;60605;53.716;19.940;2023-04-01T01:48:59;98392.71;;;8.08;100.00
57900;BME280;60605;53.716;19.940;2023-04-01T01:54:02;98392.80;;;8.09;100.00
57900;BME280;60605;53.716;19.940;2023-04-01T01:59:08;98385.52;;;8.09;100.00
57900;BME280;60605;53.716;19.940;2023-04-01T02:04:13;98382.14;;;8.09;100.00
57900;BME280;60605;53.716;19.940;2023-04-01T02:09:16;98388.23;;;8.10;100.00
57900;BME280;60605;53.716;19.940;2023-04-01T02:14:33;98394.86;;;8.11;100.00
57900;BME280;60605;53.716;19.940;2023-04-01T02:19:51;98393.15;;;8.12;100.00
57900;BME280;60605;53.716;19.940;2023-04-01T02:25:00;98387.79;;;8.14;100.00
57900;BME280;60605;53.716;19.940;2023-04-01T02:30:03;98389.41;;;8.15;100.00
57900;BME280;60605;53.716;19.940;2023-04-01T02:35:11;98384.08;;;8.15;100.00
57900;BME280;60605;53.716;19.940;2023-04-01T02:40:16;98385.52;;;8.15;100.00
57900;BME280;60605;53.716;19.940;2023-04-01T02:45:18;98384.85;;;8.14;100.00
57900;BME280;60605;53.716;19.940;2023-04-01T02:50:20;98385.14;;;8.15;100.00
57900;BME280;60605;53.716;19.940;2023-04-01T02:55:23;98395.16;;;8.16;100.00
57900;BME280;60605;53.716;19.940;2023-04-01T03:00:25;98395.95;;;8.17;100.00
57900;BME280;60605;53.716;19.940;2023-04-01T03:05:28;98396.79;;;8.17;100.00
57900;BME280;60605;53.716;19.940;2023-04-01T03:10:30;98395.15;;;8.17;100.00
57900;BME280;60605;53.716;19.940;2023-04-01T03:15:32;98402.30;;;8.17;100.00
57900;BME280;60605;53.716;19.940;2023-04-01T03:20:34;98405.42;;;8.16;100.00
57900;BME280;60605;53.716;19.940;2023-04-01T03:25:36;98404.71;;;8.15;100.00
57900;BME280;60605;53.716;19.940;2023-04-01T03:30:39;98406.27;;;8.12;100.00
57900;BME280;60605;53.716;19.940;2023-04-01T03:35:41;98410.10;;;8.10;100.00
57900;BME280;60605;53.716;19.940;2023-04-01T03:40:44;98411.19;;;8.08;100.00
57900;BME280;60605;53.716;19.940;2023-04-01T03:45:47;98410.17;;;8.06;100.00
57900;BME280;60605;53.716;19.940;2023-04-01T03:50:50;98403.99;;;8.05;100.00
57900;BME280;60605;53.716;19.940;2023-04-01T03:55:52;98414.70;;;8.04;100.00
57900;BME280;60605;53.716;19.940;2023-04-01T04:00:54;98416.73;;;8.04;100.00
57900;BME280;60605;53.716;19.940;2023-04-01T04:05:56;98422.35;;;8.03;100.00
57900;BME280;60605;53.716;19.940;2023-04-01T04:10:58;98426.14;;;8.02;100.00
57900;BME280;60605;53.716;19.940;2023-04-01T04:16:00;98431.81;;;8.03;100.00
57900;BME280;60605;53.716;19.940;2023-04-01T04:21:03;98436.98;;;8.02;100.00
57900;BME280;60605;53.716;19.940;2023-04-01T04:26:07;98441.39;;;8.01;100.00
57900;BME280;60605;53.716;19.940;2023-04-01T04:31:09;98442.80;;;8.01;100.00
57900;BME280;60605;53.716;19.940;2023-04-01T04:36:13;98444.86;;;8.00;100.00
57900;BME280;60605;53.716;19.940;2023-04-01T04:41:15;98443.19;;;7.98;100.00
57900;BME280;60605;53.716;19.940;2023-04-01T04:46:19;98442.55;;;7.96;100.00
57900;BME280;60605;53.716;19.940;2023-04-01T04:51:21;98448.36;;;7.95;100.00
57900;BME280;60605;53.716;19.940;2023-04-01T04:56:24;98451.60;;;7.96;100.00
57900;BME280;60605;53.716;19.940;2023-04-01T05:01:28;98454.96;;;7.98;100.00
57900;BME280;60605;53.716;19.940;2023-04-01T05:06:30;98459.02;;;7.98;100.00
57900;BME280;60605;53.716;19.940;2023-04-01T05:11:32;98466.74;;;7.99;100.00
57900;BME280;60605;53.716;19.940;2023-04-01T05:16:34;98471.64;;;8.00;100.00
57900;BME280;60605;53.716;19.940;2023-04-01T05:21:37;98474.25;;;8.01;100.00
57900;BME280;60605;53.716;19.940;2023-04-01T05:26:38;98480.96;;;8.03;100.00
57900;BME280;60605;53.716;19.940;2023-04-01T05:31:41;98483.04;;;8.02;100.00
57900;BME280;60605;53.716;19.940;2023-04-01T05:36:43;98485.17;;;7.99;100.00
57900;BME280;60605;53.716;19.940;2023-04-01T05:41:45;98490.57;;;8.00;100.00
57900;BME280;60605;53.716;19.940;2023-04-01T05:46:47;98493.02;;;8.02;100.00
57900;BME280;60605;53.716;19.940;2023-04-01T05:51:49;98496.83;;;8.04;100.00
57900;BME280;60605;53.716;19.940;2023-04-01T05:56:52;98499.30;;;8.07;100.00
57900;BME280;60605;53.716;19.940;2023-04-01T06:01:54;98503.51;;;8.11;100.00
57900;BME280;60605;53.716;19.940;2023-04-01T06:06:56;98506.59;;;8.15;100.00
57900;BME280;60605;53.716;19.940;2023-04-01T06:23:01;98519.19;;;8.09;100.00
57900;BME280;60605;53.716;19.940;2023-04-01T06:33:55;98523.97;;;8.11;100.00
57900;BME280;60605;53.716;19.940;2023-04-01T06:39:17;98525.30;;;8.09;100.00
57900;BME280;60605;53.716;19.940;2023-04-01T06:44:43;98530.88;;;8.02;100.00
57900;BME280;60605;53.716;19.940;2023-04-01T06:55:29;98543.02;;;7.94;100.00
57900;BME280;60605;53.716;19.940;2023-04-01T07:00:38;98541.36;;;7.96;100.00
57900;BME280;60605;53.716;19.940;2023-04-01T07:05:42;98548.86;;;7.96;100.00
57900;BME280;60605;53.716;19.940;2023-04-01T07:10:47;98556.74;;;7.94;100.00
57900;BME280;60605;53.716;19.940;2023-04-01T07:15:59;98565.03;;;7.85;100.00
57900;BME280;60605;53.716;19.940;2023-04-01T07:21:03;98567.21;;;7.78;100.00
57900;BME280;60605;53.716;19.940;2023-04-01T07:26:24;98569.43;;;7.75;100.00
57900;BME280;60605;53.716;19.940;2023-04-01T07:42:13;98579.29;;;7.76;100.00
57900;BME280;60605;53.716;19.940;2023-04-01T07:47:44;98585.18;;;7.73;100.00
57900;BME280;60605;53.716;19.940;2023-04-01T07:53:13;98591.86;;;7.69;100.00
57900;BME280;60605;53.716;19.940;2023-04-01T08:03:43;98598.04;;;7.68;100.00
57900;BME280;60605;53.716;19.940;2023-04-01T08:24:39;98607.61;;;7.97;100.00
57900;BME280;60605;53.716;19.940;2023-04-01T08:35:29;98612.91;;;8.35;100.00
57900;BME280;60605;53.716;19.940;2023-04-01T08:46:06;98621.81;;;8.29;100.00
57900;BME280;60605;53.716;19.940;2023-04-01T08:57:00;98631.63;;;8.68;100.00
57900;BME280;60605;53.716;19.940;2023-04-01T09:07:51;98635.83;;;9.77;100.00
57900;BME280;60605;53.716;19.940;2023-04-01T09:23:52;98657.74;;;10.19;100.00
57900;BME280;60605;53.716;19.940;2023-04-01T09:29:10;98665.27;;;10.10;100.00
57900;BME280;60605;53.716;19.940;2023-04-01T09:34:54;98670.84;;;10.03;100.00
57900;BME280;60605;53.716;19.940;2023-04-01T09:45:44;98685.69;;;9.79;100.00
57900;BME280;60605;53.716;19.940;2023-04-01T10:01:42;98702.70;;;9.41;100.00
57900;BME280;60605;53.716;19.940;2023-04-01T10:13:03;98712.78;;;9.22;100.00
57900;BME280;60605;53.716;19.940;2023-04-01T10:33:43;98731.18;;;9.59;100.00
57900;BME280;60605;53.716;19.940;2023-04-01T11:28:38;98771.96;;;10.10;99.99
57900;BME280;60605;53.716;19.940;2023-04-01T11:44:16;98783.42;;;9.59;100.00
57900;BME280;60605;53.716;19.940;2023-04-01T12:11:21;98812.40;;;8.63;100.00
57900;BME280;60605;53.716;19.940;2023-04-01T12:21:38;98815.40;;;8.71;100.00
57900;BME280;60605;53.716;19.940;2023-04-01T12:37:35;98834.18;;;8.87;100.00
57900;BME280;60605;53.716;19.940;2023-04-01T13:09:55;98871.53;;;8.84;100.00
57900;BME280;60605;53.716;19.940;2023-04-01T13:15:23;98876.27;;;8.83;100.00
57900;BME280;60605;53.716;19.940;2023-04-01T13:25:50;98891.91;;;8.85;100.00
57900;BME280;60605;53.716;19.940;2023-04-01T14:04:08;98925.50;;;7.66;100.00
57900;BME280;60605;53.716;19.940;2023-04-01T14:09:45;98930.89;;;7.54;100.00
57900;BME280;60605;53.716;19.940;2023-04-01T14:30:51;98952.77;;;7.31;100.00
57900;BME280;60605;53.716;19.940;2023-04-01T14:36:19;98958.11;;;7.26;100.00
57900;BME280;60605;53.716;19.940;2023-04-01T14:52:31;98978.56;;;7.15;100.00
57900;BME280;60605;53.716;19.940;2023-04-01T14:57:31;98986.67;;;7.02;100.00
57900;BME280;60605;53.716;19.940;2023-04-01T15:18:53;99009.27;;;6.64;100.00
57900;BME280;60605;53.716;19.940;2023-04-01T15:24:09;99017.52;;;6.55;100.00
57900;BME280;60605;53.716;19.940;2023-04-01T15:29:34;99019.95;;;6.49;100.00
57900;BME280;60605;53.716;19.940;2023-04-01T15:35:01;99031.39;;;6.48;100.00
57900;BME280;60605;53.716;19.940;2023-04-01T16:01:29;99065.83;;;6.29;100.00
57900;BME280;60605;53.716;19.940;2023-04-01T16:12:19;99084.25;;;6.13;100.00
57900;BME280;60605;53.716;19.940;2023-04-01T16:29:17;99115.60;;;5.86;100.00
57900;BME280;60605;53.716;19.940;2023-04-01T16:34:36;99126.71;;;5.75;100.00
57900;BME280;60605;53.716;19.940;2023-04-01T16:40:01;99130.43;;;5.68;100.00
57900;BME280;60605;53.716;19.940;2023-04-01T16:50:21;99143.73;;;5.63;100.00
57900;BME280;60605;53.716;19.940;2023-04-01T17:00:49;99162.02;;;5.59;100.00
57900;BME280;60605;53.716;19.940;2023-04-01T17:06:16;99172.08;;;5.52;100.00
57900;BME280;60605;53.716;19.940;2023-04-01T17:11:27;99180.45;;;5.44;100.00
57900;BME280;60605;53.716;19.940;2023-04-01T17:49:21;99245.03;;;5.04;100.00
57900;BME280;60605;53.716;19.940;2023-04-01T17:54:23;99255.35;;;4.96;100.00
57900;BME280;60605;53.716;19.940;2023-04-01T17:59:37;99257.59;;;4.90;100.00
57900;BME280;60605;53.716;19.940;2023-04-01T18:25:40;99294.30;;;4.78;100.00
57900;BME280;60605;53.716;19.940;2023-04-01T18:41:25;99314.86;;;4.58;100.00
57900;BME280;60605;53.716;19.940;2023-04-01T18:51:56;99328.69;;;4.56;100.00
57900;BME280;60605;53.716;19.940;2023-04-01T18:57:19;99333.52;;;4.54;100.00
57900;BME280;60605;53.716;19.940;2023-04-01T19:02:29;99342.00;;;4.52;100.00
57900;BME280;60605;53.716;19.940;2023-04-01T19:50:34;99398.64;;;4.21;100.00
57900;BME280;60605;53.716;19.940;2023-04-01T19:55:53;99404.06;;;4.18;100.00
57900;BME280;60605;53.716;19.940;2023-04-01T20:01:00;99412.22;;;4.16;100.00
57900;BME280;60605;53.716;19.940;2023-04-01T20:17:14;99430.04;;;4.04;100.00
57900;BME280;60605;53.716;19.940;2023-04-01T20:22:31;99432.29;;;4.01;100.00
57900;BME280;60605;53.716;19.940;2023-04-01T20:27:47;99438.88;;;3.98;100.00
57900;BME280;60605;53.716;19.940;2023-04-01T20:33:06;99443.19;;;3.95;100.00
57900;BME280;60605;53.716;19.940;2023-04-01T20:44:28;99451.78;;;3.92;100.00
57900;BME280;60605;53.716;19.940;2023-04-01T21:16:23;99490.59;;;3.78;100.00
57900;BME280;60605;53.716;19.940;2023-04-01T21:27:11;99500.85;;;3.78;100.00
57900;BME280;60605;53.716;19.940;2023-04-01T22:05:09;99527.73;;;3.63;100.00
57900;BME280;60605;53.716;19.940;2023-04-01T22:10:19;99529.88;;;3.58;100.00
57900;BME280;60605;53.716;19.940;2023-04-01T22:42:35;99567.14;;;3.17;100.00
57900;BME280;60605;53.716;19.940;2023-04-01T22:47:51;99570.31;;;3.07;100.00
57900;BME280;60605;53.716;19.940;2023-04-01T22:58:35;99588.35;;;2.91;100.00
57900;BME280;60605;53.716;19.940;2023-04-01T23:03:41;99592.34;;;2.85;100.00
57900;BME280;60605;53.716;19.940;2023-04-01T23:09:11;99593.35;;;2.81;100.00
57900;BME280;60605;53.716;19.940;2023-04-01T23:40:52;99630.32;;;2.42;100.00
57900;BME280;60605;53.716;19.940;2023-04-01T23:45:55;99640.44;;;2.27;100.00
57900;BME280;60605;53.716;19.940;2023-04-01T23:50:58;99643.19;;;2.14;100.00
57900;BME280;60605;53.716;19.940;2023-04-01T23:56:03;99645.95;;;2.01;100.00
